createdAt,value
2019-04-10T00:02:13.414Z,83.47
2019-04-10T00:04:40.456Z,84.02
2019-04-10T00:07:14.238Z,83.98
2019-04-10T00:09:36.073Z,84.16
2019-04-10T00:12:03.723Z,84.93
2019-04-10T00:14:30.458Z,84.83
2019-04-10T00:16:57.503Z,84.10
2019-04-10T00:19:24.322Z,83.65
2019-04-10T00:21:53.896Z,83.95
2019-04-10T00:24:20.759Z,83.59
2019-04-10T00:26:48.465Z,83.41
2019-04-10T00:29:16.134Z,83.18
2019-04-10T00:31:42.884Z,83.03
2019-04-10T00:34:09.649Z,82.71
2019-04-10T00:36:39.383Z,82.70
2019-04-10T00:39:08.520Z,82.71
2019-04-10T00:41:36.754Z,82.69
2019-04-10T00:44:03.903Z,82.68
2019-04-10T00:46:30.634Z,82.61
2019-04-10T00:48:58.601Z,82.69
2019-04-10T00:51:25.787Z,81.98
2019-04-10T00:53:52.575Z,82.77
2019-04-10T00:56:24.183Z,82.67
2019-04-10T00:58:51.678Z,81.99
2019-04-10T01:01:19.320Z,82.35
2019-04-10T01:03:48.404Z,81.91
2019-04-10T01:06:15.923Z,82.71
2019-04-10T01:08:43.210Z,82.76
2019-04-10T01:11:13.187Z,83.58
2019-04-10T01:13:41.016Z,82.77
2019-04-10T01:16:09.205Z,83.36
2019-04-10T01:18:36.055Z,83.50
2019-04-10T01:21:04.032Z,83.33
2019-04-10T01:23:31.158Z,83.64
2019-04-10T01:25:58.890Z,84.25
2019-04-10T01:28:26.664Z,83.81
2019-04-10T01:30:54.877Z,83.06
2019-04-10T01:33:22.759Z,82.89
2019-04-10T01:35:50.844Z,83.09
2019-04-10T01:38:21.740Z,82.81
2019-04-10T01:40:49.035Z,83.12
2019-04-10T01:43:18.326Z,82.93
2019-04-10T01:45:45.969Z,83.25
2019-04-10T01:48:14.022Z,82.27
2019-04-10T01:50:40.779Z,82.10
2019-04-10T01:53:09.431Z,82.27
2019-04-10T01:55:36.303Z,82.58
2019-04-10T01:58:08.489Z,83.06
2019-04-10T02:00:35.864Z,82.46
2019-04-10T02:03:03.481Z,82.43
2019-04-10T02:05:32.517Z,81.43
2019-04-10T02:08:07.234Z,81.80
2019-04-10T02:10:28.032Z,81.43
2019-04-10T02:12:55.175Z,82.45
2019-04-10T02:15:22.247Z,82.60
2019-04-10T02:17:49.059Z,82.68
2019-04-10T02:20:18.971Z,82.64
2019-04-10T02:22:46.106Z,81.96
2019-04-10T02:25:13.794Z,82.79
2019-04-10T02:27:40.813Z,82.24
2019-04-10T02:30:10.341Z,82.54
2019-04-10T02:32:38.886Z,82.84
2019-04-10T02:35:06.922Z,82.33
2019-04-10T02:37:35.108Z,82.29
2019-04-10T02:40:03.608Z,81.58
2019-04-10T02:42:32.354Z,81.89
2019-04-10T02:44:59.626Z,81.45
2019-04-10T02:47:28.330Z,80.55
2019-04-10T02:49:56.731Z,79.33
2019-04-10T02:52:24.591Z,80.06
2019-04-10T02:54:53.578Z,80.56
2019-04-10T02:57:21.497Z,80.29
2019-04-10T02:59:48.322Z,79.85
2019-04-10T03:02:16.151Z,80.11
2019-04-10T03:04:44.411Z,80.10
2019-04-10T03:07:11.738Z,79.78
2019-04-10T03:09:54.937Z,80.26
2019-04-10T03:12:08.555Z,79.41
2019-04-10T03:14:36.783Z,79.99
2019-04-10T03:17:03.884Z,80.36
2019-04-10T03:19:31.718Z,79.96
2019-04-10T03:21:59.608Z,79.84
2019-04-10T03:24:27.460Z,80.21
2019-04-10T03:26:54.421Z,80.03
2019-04-10T03:29:21.968Z,80.55
2019-04-10T03:31:50.445Z,80.19
2019-04-10T03:34:22.945Z,80.50
2019-04-10T03:36:50.502Z,80.39
2019-04-10T03:39:17.466Z,80.47
2019-04-10T03:41:46.033Z,80.42
2019-04-10T03:44:12.879Z,79.80
2019-04-10T03:46:41.261Z,80.23
2019-04-10T03:49:11.811Z,79.45
2019-04-10T03:51:38.877Z,79.77
2019-04-10T03:54:05.540Z,79.69
2019-04-10T03:56:32.333Z,78.58
2019-04-10T03:58:59.906Z,78.89
2019-04-10T04:01:29.104Z,79.42
2019-04-10T04:03:55.807Z,79.20
2019-04-10T04:06:24.184Z,79.09
2019-04-10T04:09:01.297Z,79.29
2019-04-10T04:11:19.818Z,79.48
2019-04-10T04:13:46.589Z,78.82
2019-04-10T04:16:13.348Z,78.95
2019-04-10T04:18:40.145Z,78.58
2019-04-10T04:21:07.656Z,78.56
2019-04-10T04:23:36.135Z,78.14
2019-04-10T04:26:03.527Z,78.54
2019-04-10T04:28:30.421Z,78.48
2019-04-10T04:30:57.155Z,78.73
2019-04-10T04:33:24.380Z,78.76
2019-04-10T04:35:51.505Z,78.45
2019-04-10T04:38:18.584Z,79.14
2019-04-10T04:40:46.332Z,78.39
2019-04-10T04:43:14.578Z,79.05
2019-04-10T04:45:42.288Z,78.67
2019-04-10T04:48:09.865Z,78.83
2019-04-10T04:50:38.147Z,79.34
2019-04-10T04:53:06.655Z,78.72
2019-04-10T04:55:33.697Z,78.90
2019-04-10T04:58:00.661Z,78.82
2019-04-10T05:00:27.817Z,78.51
2019-04-10T05:02:57.730Z,78.86
2019-04-10T05:05:25.280Z,78.77
2019-04-10T05:07:59.381Z,78.86
2019-04-10T05:10:22.889Z,78.45
2019-04-10T05:12:49.793Z,79.03
2019-04-10T05:15:16.509Z,78.82
2019-04-10T05:17:43.297Z,78.55
2019-04-10T05:20:12.749Z,78.52
2019-04-10T05:22:39.646Z,78.22
2019-04-10T05:25:06.917Z,78.57
2019-04-10T05:27:39.736Z,77.83
2019-04-10T05:30:06.498Z,78.34
2019-04-10T05:32:33.273Z,78.52
2019-04-10T05:35:05.799Z,78.31
2019-04-10T05:37:31.682Z,78.78
2019-04-10T05:40:03.444Z,78.82
2019-04-10T05:42:31.031Z,78.02
2019-04-10T05:45:03.106Z,78.41
2019-04-10T05:47:36.656Z,77.47
2019-04-10T05:50:08.395Z,77.99
2019-04-10T05:52:35.390Z,77.75
2019-04-10T05:55:02.489Z,77.91
2019-04-10T05:57:29.449Z,77.68
2019-04-10T06:00:00.554Z,77.35
2019-04-10T06:02:27.826Z,77.31
2019-04-10T06:04:55.949Z,77.55
2019-04-10T06:07:25.650Z,76.46
2019-04-10T06:10:00.234Z,76.71
2019-04-10T06:12:24.397Z,76.67
2019-04-10T06:14:52.530Z,77.09
2019-04-10T06:17:20.580Z,76.65
2019-04-10T06:19:51.077Z,75.95
2019-04-10T06:22:18.706Z,76.00
2019-04-10T06:24:46.767Z,76.26
2019-04-10T06:27:16.960Z,76.12
2019-04-10T06:29:45.025Z,75.13
2019-04-10T06:32:13.538Z,75.06
2019-04-10T06:34:40.897Z,74.88
2019-04-10T06:37:08.109Z,74.69
2019-04-10T06:39:35.307Z,74.62
2019-04-10T06:42:02.503Z,74.72
2019-04-10T06:44:30.098Z,75.01
2019-04-10T06:47:00.811Z,74.29
2019-04-10T06:49:33.433Z,74.78
2019-04-10T06:52:01.881Z,74.60
2019-04-10T06:54:29.022Z,75.26
2019-04-10T06:56:59.142Z,74.93
2019-04-10T06:59:26.239Z,74.19
2019-04-10T07:01:57.077Z,73.17
2019-04-10T07:04:25.226Z,73.22
2019-04-10T07:07:00.057Z,73.01
2019-04-10T07:09:25.372Z,73.36
2019-04-10T07:11:55.557Z,73.22
2019-04-10T07:14:20.470Z,72.93
2019-04-10T07:16:48.546Z,72.28
2019-04-10T07:19:18.427Z,72.24
2019-04-10T07:21:45.470Z,72.16
2019-04-10T07:24:14.935Z,72.25
2019-04-10T07:26:47.783Z,72.79
2019-04-10T07:29:18.676Z,72.46
2019-04-10T07:31:44.690Z,72.69
2019-04-10T07:34:11.653Z,71.83
2019-04-10T07:36:45.137Z,72.63
2019-04-10T07:39:15.206Z,72.70
2019-04-10T07:41:42.959Z,72.32
2019-04-10T07:44:09.982Z,71.39
2019-04-10T07:46:40.179Z,71.29
2019-04-10T07:49:07.057Z,70.51
2019-04-10T07:51:38.901Z,69.89
2019-04-10T07:54:06.138Z,69.77
2019-04-10T07:56:33.347Z,70.85
2019-04-10T07:59:00.568Z,71.44
2019-04-10T08:01:27.425Z,70.98
2019-04-10T08:03:55.642Z,70.67
2019-04-10T08:06:23.483Z,70.12
2019-04-10T08:08:51.772Z,70.38
2019-04-10T08:11:19.783Z,70.79
2019-04-10T08:13:53.271Z,70.55
2019-04-10T08:16:25.447Z,70.24
2019-04-10T08:18:52.471Z,69.84
2019-04-10T08:21:19.775Z,71.40
2019-04-10T08:23:46.632Z,70.39
2019-04-10T08:26:16.313Z,70.19
2019-04-10T08:28:43.386Z,71.37
2019-04-10T08:31:10.659Z,71.49
2019-04-10T08:33:40.342Z,72.04
2019-04-10T08:36:07.718Z,71.93
2019-04-10T08:38:39.858Z,71.76
2019-04-10T08:41:06.932Z,71.47
2019-04-10T08:43:34.174Z,72.07
2019-04-10T08:46:01.975Z,72.34
2019-04-10T08:48:31.505Z,72.37
2019-04-10T08:50:59.210Z,72.05
2019-04-10T08:53:27.311Z,72.18
2019-04-10T08:55:56.809Z,71.60
2019-04-10T08:58:24.976Z,71.96
2019-04-10T09:00:53.039Z,71.32
2019-04-10T09:03:20.648Z,70.96
2019-04-10T09:05:49.018Z,70.84
2019-04-10T09:08:17.048Z,71.09
2019-04-10T09:10:46.926Z,70.34
2019-04-10T09:13:15.344Z,69.87
2019-04-10T09:15:42.485Z,69.87
2019-04-10T09:18:11.250Z,70.36
2019-04-10T09:20:39.074Z,70.03
2019-04-10T09:23:23.507Z,69.57
2019-04-10T09:25:35.351Z,70.01
2019-04-10T09:28:02.336Z,70.39
2019-04-10T09:30:29.645Z,70.39
2019-04-10T09:32:57.042Z,69.96
2019-04-10T09:35:29.446Z,70.53
2019-04-10T09:38:04.163Z,70.08
2019-04-10T09:40:33.340Z,69.71
2019-04-10T09:43:00.822Z,69.26
2019-04-10T09:45:28.520Z,68.34
2019-04-10T09:47:55.827Z,68.54
2019-04-10T09:50:23.437Z,68.27
2019-04-10T09:52:52.807Z,68.11
2019-04-10T09:55:20.134Z,67.58
2019-04-10T09:57:50.078Z,67.87
2019-04-10T10:00:17.684Z,67.82
2019-04-10T10:02:47.505Z,66.87
2019-04-10T10:05:18.163Z,66.96
2019-04-10T10:07:48.635Z,66.68
2019-04-10T10:10:15.818Z,66.87
2019-04-10T10:12:48.716Z,66.67
2019-04-10T10:15:16.767Z,66.36
2019-04-10T10:17:47.356Z,65.23
2019-04-10T10:20:16.542Z,64.01
2019-04-10T10:22:43.516Z,63.66
2019-04-10T10:25:11.193Z,63.58
2019-04-10T10:27:42.654Z,63.21
2019-04-10T10:30:10.009Z,63.24
2019-04-10T10:32:37.169Z,62.48
2019-04-10T10:35:07.562Z,62.29
2019-04-10T10:37:34.632Z,63.24
2019-04-10T10:40:01.488Z,62.58
2019-04-10T10:42:32.068Z,63.78
2019-04-10T10:45:00.510Z,63.79
2019-04-10T10:47:29.063Z,64.62
2019-04-10T10:49:56.956Z,64.79
2019-04-10T10:52:23.969Z,65.09
2019-04-10T10:54:53.855Z,65.54
2019-04-10T10:57:21.234Z,65.61
2019-04-10T10:59:49.432Z,66.27
2019-04-10T11:02:17.125Z,63.90
2019-04-10T11:04:45.374Z,63.07
2019-04-10T11:07:18.691Z,63.29
2019-04-10T11:09:45.878Z,62.81
2019-04-10T11:12:13.602Z,62.67
2019-04-10T11:14:40.570Z,61.79
2019-04-10T11:17:07.544Z,61.54
2019-04-10T11:19:35.512Z,59.77
2019-04-10T11:22:02.968Z,59.75
2019-04-10T11:24:31.647Z,59.24
2019-04-10T11:27:00.078Z,58.54
2019-04-10T11:29:28.989Z,58.14
2019-04-10T11:31:55.876Z,57.30
2019-04-10T11:34:24.373Z,57.08
2019-04-10T11:37:12.931Z,57.56
2019-04-10T11:39:26.121Z,57.38
2019-04-10T11:41:50.880Z,56.57
2019-04-10T11:44:24.769Z,56.28
2019-04-10T11:46:54.945Z,56.20
2019-04-10T11:49:23.829Z,56.45
2019-04-10T11:51:56.709Z,56.80
2019-04-10T11:54:27.808Z,57.21
2019-04-10T11:56:57.856Z,56.86
2019-04-10T11:59:24.314Z,55.17
2019-04-10T12:01:56.131Z,55.33
2019-04-10T12:04:20.601Z,55.17
2019-04-10T12:06:52.278Z,55.93
2019-04-10T12:10:18.420Z,54.78
2019-04-10T12:11:48.948Z,55.02
2019-04-10T12:14:17.114Z,54.27
2019-04-10T12:16:43.973Z,55.60
2019-04-10T12:19:13.905Z,55.44
2019-04-10T12:21:40.710Z,54.33
2019-04-10T12:24:07.469Z,54.27
2019-04-10T12:26:35.907Z,52.87
2019-04-10T12:29:02.879Z,53.16
2019-04-10T12:31:30.181Z,53.87
2019-04-10T12:33:57.160Z,53.84
2019-04-10T12:36:24.666Z,52.90
2019-04-10T12:38:51.941Z,51.67
2019-04-10T12:41:21.481Z,51.97
2019-04-10T12:44:09.561Z,50.63
2019-04-10T12:46:43.574Z,51.29
2019-04-10T12:49:11.493Z,52.12
2019-04-10T12:51:41.871Z,52.74
2019-04-10T12:54:12.245Z,53.10
2019-04-10T12:56:40.182Z,53.09
2019-04-10T12:59:07.213Z,53.19
2019-04-10T13:01:37.067Z,52.81
2019-04-10T13:04:03.881Z,53.74
2019-04-10T13:06:31.717Z,52.59
2019-04-10T13:09:11.693Z,51.49
2019-04-10T13:11:41.165Z,51.19
2019-04-10T13:14:08.714Z,52.63
2019-04-10T13:16:36.237Z,52.49
2019-04-10T13:19:13.075Z,51.42
2019-04-10T13:21:42.448Z,50.86
2019-04-10T13:24:09.785Z,50.55
2019-04-10T13:26:37.601Z,50.20
2019-04-10T13:29:05.743Z,49.07
2019-04-10T13:31:33.230Z,48.68
2019-04-10T13:34:02.789Z,48.00
2019-04-10T13:36:31.693Z,48.52
2019-04-10T13:38:58.925Z,48.07
2019-04-10T13:41:26.811Z,46.51
2019-04-10T13:43:53.989Z,45.95
2019-04-10T13:46:24.683Z,46.53
2019-04-10T13:48:53.634Z,45.17
2019-04-10T13:51:23.416Z,44.78
2019-04-10T13:53:50.717Z,44.48
2019-04-10T13:56:25.765Z,45.16
2019-04-10T13:58:56.305Z,44.58
2019-04-10T14:01:37.777Z,45.06
2019-04-10T14:04:05.106Z,43.98
2019-04-10T14:06:36.619Z,44.04
2019-04-10T14:09:28.946Z,44.39
2019-04-10T14:11:41.604Z,45.14
2019-04-10T14:14:10.610Z,45.01
2019-04-10T14:16:53.059Z,45.10
2019-04-10T14:19:29.868Z,46.54
2019-04-10T14:22:00.043Z,47.01
2019-04-10T14:24:42.830Z,46.63
2019-04-10T14:27:24.509Z,47.15
2019-04-10T14:29:51.884Z,46.89
2019-04-10T14:32:39.715Z,45.89
2019-04-10T14:35:08.633Z,46.20
2019-04-10T14:37:39.487Z,46.78
2019-04-10T14:40:08.397Z,46.98
2019-04-10T14:42:36.025Z,45.76
2019-04-10T14:45:09.044Z,46.76
2019-04-10T14:47:36.026Z,46.74
2019-04-10T14:50:02.929Z,46.25
2019-04-10T14:52:41.091Z,46.35
2019-04-10T14:55:08.299Z,45.81
2019-04-10T14:57:35.104Z,46.43
2019-04-10T15:00:02.279Z,46.19
2019-04-10T15:02:30.673Z,47.85
2019-04-10T15:04:57.777Z,48.49
2019-04-10T15:07:24.501Z,48.82
2019-04-10T15:09:51.421Z,48.61
2019-04-10T15:12:20.513Z,48.33
2019-04-10T15:14:49.934Z,48.57
2019-04-10T15:17:18.901Z,48.38
2019-04-10T15:19:46.930Z,48.62
2019-04-10T15:22:15.488Z,48.03
2019-04-10T15:24:44.774Z,47.31
2019-04-10T15:27:11.761Z,47.52
2019-04-10T15:29:38.767Z,48.35
2019-04-10T15:32:06.347Z,49.24
2019-04-10T15:34:33.745Z,49.09
2019-04-10T15:37:00.571Z,49.16
2019-04-10T15:39:33.887Z,50.20
2019-04-10T15:41:57.456Z,50.40
2019-04-10T15:44:26.433Z,51.17
2019-04-10T15:46:53.364Z,52.20
2019-04-10T15:49:20.318Z,53.17
2019-04-10T15:51:47.714Z,53.76
2019-04-10T15:54:14.488Z,54.27
2019-04-10T15:56:42.320Z,54.34
2019-04-10T15:59:10.151Z,54.51
2019-04-10T16:01:37.577Z,54.91
2019-04-10T16:04:05.260Z,54.53
2019-04-10T16:06:33.389Z,55.23
2019-04-10T16:09:02.990Z,55.79
2019-04-10T16:11:50.154Z,55.60
2019-04-10T16:14:22.784Z,55.66
2019-04-10T16:17:06.844Z,55.02
2019-04-10T16:19:44.855Z,54.47
2019-04-10T16:22:19.413Z,55.06
2019-04-10T16:24:47.129Z,55.40
2019-04-10T16:27:13.990Z,55.31
2019-04-10T16:29:40.739Z,55.44
2019-04-10T16:32:08.830Z,55.22
2019-04-10T16:34:35.580Z,55.02
2019-04-10T16:37:02.460Z,54.50
2019-04-10T16:39:30.007Z,54.94
2019-04-10T16:41:57.952Z,54.85
2019-04-10T16:44:26.953Z,55.00
2019-04-10T16:46:53.929Z,56.03
2019-04-10T16:49:20.711Z,56.54
2019-04-10T16:51:48.262Z,56.67
2019-04-10T16:54:18.700Z,56.21
2019-04-10T16:56:46.416Z,55.11
2019-04-10T16:59:14.205Z,55.71
2019-04-10T17:01:41.252Z,56.46
2019-04-10T17:04:09.107Z,56.29
2019-04-10T17:06:36.523Z,56.97
2019-04-10T17:09:10.199Z,56.63
2019-04-10T17:11:38.906Z,56.60
2019-04-10T17:14:06.783Z,55.86
2019-04-10T17:16:33.731Z,57.11
2019-04-10T17:19:00.578Z,57.29
2019-04-10T17:21:30.543Z,58.16
2019-04-10T17:23:56.846Z,58.86
2019-04-10T17:26:24.713Z,58.48
2019-04-10T17:28:52.502Z,58.25
2019-04-10T17:31:19.409Z,58.73
2019-04-10T17:33:46.328Z,58.85
2019-04-10T17:36:13.519Z,59.01
2019-04-10T17:38:40.514Z,58.90
2019-04-10T17:41:09.169Z,58.81
2019-04-10T17:43:37.123Z,58.32
2019-04-10T17:46:07.120Z,57.91
2019-04-10T17:48:34.854Z,58.11
2019-04-10T17:51:05.727Z,57.46
2019-04-10T17:53:33.602Z,57.47
2019-04-10T17:56:00.442Z,58.01
2019-04-10T17:58:27.572Z,58.23
2019-04-10T18:01:05.443Z,58.63
2019-04-10T18:03:52.166Z,58.39
2019-04-10T18:06:19.376Z,58.07
2019-04-10T18:08:47.248Z,57.80
2019-04-10T18:11:16.204Z,57.28
2019-04-10T18:13:42.860Z,57.04
2019-04-10T18:16:10.654Z,56.68
2019-04-10T18:18:38.008Z,56.40
2019-04-10T18:21:05.011Z,56.14
2019-04-10T18:23:31.766Z,55.32
2019-04-10T18:25:58.537Z,54.19
2019-04-10T18:28:25.613Z,53.21
2019-04-10T18:30:52.425Z,51.91
2019-04-10T18:33:20.334Z,50.75
2019-04-10T18:35:47.244Z,49.34
2019-04-10T18:38:14.177Z,48.50
2019-04-10T18:40:52.323Z,47.82
2019-04-10T18:43:09.828Z,47.05
2019-04-10T18:45:37.671Z,46.63
2019-04-10T18:48:06.247Z,47.10
2019-04-10T18:50:34.037Z,45.29
2019-04-10T18:53:01.622Z,45.95
2019-04-10T18:55:28.656Z,45.16
2019-04-10T18:57:59.143Z,45.06
2019-04-10T19:00:44.510Z,45.25
2019-04-10T19:03:50.176Z,45.07
2019-04-10T19:06:15.026Z,44.50
2019-04-10T19:08:41.913Z,44.68
2019-04-10T19:11:20.113Z,45.07
2019-04-10T19:13:38.230Z,44.72
2019-04-10T19:16:05.519Z,45.37
2019-04-10T19:18:32.623Z,44.64
2019-04-10T19:21:00.232Z,44.60
2019-04-10T19:23:30.754Z,44.72
2019-04-10T19:25:58.791Z,44.99
2019-04-10T19:28:32.278Z,45.08
2019-04-10T19:31:08.793Z,44.39
2019-04-10T19:33:27.993Z,44.49
2019-04-10T19:35:55.160Z,44.51
2019-04-10T19:38:22.162Z,44.46
2019-04-10T19:40:48.967Z,44.22
2019-04-10T19:43:15.989Z,44.47
2019-04-10T19:45:43.918Z,44.00
2019-04-10T19:48:11.243Z,44.33
2019-04-10T19:50:37.979Z,44.44
2019-04-10T19:53:04.840Z,44.93
2019-04-10T19:55:31.667Z,44.83
2019-04-10T19:57:58.513Z,44.76
2019-04-10T20:00:30.521Z,44.85
2019-04-10T20:02:57.412Z,45.03
2019-04-10T20:05:25.136Z,45.00
2019-04-10T20:07:53.379Z,45.10
2019-04-10T20:10:21.260Z,44.90
2019-04-10T20:12:48.784Z,44.33
2019-04-10T20:15:15.742Z,44.69
2019-04-10T20:17:42.460Z,44.95
2019-04-10T20:20:09.219Z,44.47
2019-04-10T20:22:37.018Z,44.37
2019-04-10T20:25:04.152Z,44.92
2019-04-10T20:27:31.961Z,44.44
2019-04-10T20:29:59.617Z,45.16
2019-04-10T20:32:26.382Z,45.25
2019-04-10T20:34:53.925Z,44.90
2019-04-10T20:37:20.804Z,45.21
2019-04-10T20:39:47.667Z,45.41
2019-04-10T20:42:14.412Z,45.39
2019-04-10T20:44:41.276Z,45.68
2019-04-10T20:47:09.177Z,45.96
2019-04-10T20:49:36.821Z,45.92
2019-04-10T20:52:04.194Z,45.81
2019-04-10T20:54:31.098Z,45.86
2019-04-10T20:56:59.101Z,46.13
2019-04-10T20:59:26.569Z,46.00
2019-04-10T21:01:53.894Z,46.31
2019-04-10T21:04:21.318Z,46.53
2019-04-10T21:06:48.409Z,46.52
2019-04-10T21:09:15.445Z,46.81
2019-04-10T21:11:42.978Z,46.82
2019-04-10T21:14:09.829Z,46.58
2019-04-10T21:16:37.785Z,46.82
2019-04-10T21:19:06.658Z,46.58
2019-04-10T21:21:33.594Z,47.02
2019-04-10T21:24:01.016Z,46.85
2019-04-10T21:26:28.320Z,47.06
2019-04-10T21:28:55.778Z,47.57
2019-04-10T21:31:34.766Z,47.58
2019-04-10T21:34:24.548Z,47.32
2019-04-10T21:36:51.339Z,47.61
2019-04-10T21:39:19.089Z,48.02
2019-04-10T21:41:46.715Z,48.28
2019-04-10T21:44:13.734Z,48.06
2019-04-10T21:46:40.961Z,47.76
2019-04-10T21:49:08.140Z,47.83
2019-04-10T21:51:35.111Z,48.04
2019-04-10T21:54:02.252Z,48.41
2019-04-10T21:56:29.159Z,48.25
2019-04-10T21:58:56.952Z,47.72
2019-04-10T22:01:24.347Z,47.95
2019-04-10T22:03:52.154Z,48.25
2019-04-10T22:06:39.295Z,48.54
2019-04-10T22:09:24.806Z,48.76
2019-04-10T22:11:53.375Z,48.30
2019-04-10T22:14:21.420Z,48.73
2019-04-10T22:16:48.521Z,48.61
2019-04-10T22:19:16.627Z,48.72
2019-04-10T22:21:44.068Z,48.60
2019-04-10T22:24:11.591Z,48.54
2019-04-10T22:26:40.771Z,48.67
2019-04-10T22:29:07.720Z,48.62
2019-04-10T22:31:35.581Z,48.90
2019-04-10T22:34:07.719Z,49.06
2019-04-10T22:36:35.250Z,48.83
2019-04-10T22:39:02.691Z,48.85
2019-04-10T22:41:32.097Z,48.89
2019-04-10T22:43:58.629Z,49.17
2019-04-10T22:46:25.914Z,49.34
2019-04-10T22:48:53.510Z,49.22
2019-04-10T22:51:21.297Z,49.05
2019-04-10T22:53:48.213Z,49.15
2019-04-10T22:56:15.147Z,48.95
2019-04-10T22:58:43.134Z,49.20
2019-04-10T23:01:13.122Z,48.92
2019-04-10T23:03:41.025Z,49.39
2019-04-10T23:06:09.013Z,49.89
2019-04-10T23:08:35.934Z,50.07
2019-04-10T23:11:03.574Z,50.30
2019-04-10T23:13:34.142Z,50.39
2019-04-10T23:16:01.974Z,49.96
2019-04-10T23:18:29.763Z,50.12
2019-04-10T23:20:57.177Z,50.16
2019-04-10T23:23:25.256Z,50.14
2019-04-10T23:25:53.041Z,50.26
2019-04-10T23:28:20.107Z,49.92
2019-04-10T23:30:47.421Z,50.40
2019-04-10T23:33:14.205Z,50.51
2019-04-10T23:35:41.313Z,50.49
2019-04-10T23:38:09.164Z,50.18
2019-04-10T23:40:36.866Z,50.49
2019-04-10T23:43:11.195Z,50.54
2019-04-10T23:45:35.737Z,50.67
2019-04-10T23:48:02.609Z,50.86
2019-04-10T23:50:30.324Z,50.88
2019-04-10T23:52:58.359Z,50.57
2019-04-10T23:55:26.134Z,50.91
2019-04-10T23:57:55.759Z,50.69
